sensor_id;sensor_type;location;lat;lon;timestamp;temperature;humidity
62007;DHT22;47963;53.008;6.754;2022-11-27T00:01:19;6.90;99.90
62007;DHT22;47963;53.008;6.754;2022-11-27T00:03:45;6.90;99.90
62007;DHT22;47963;53.008;6.754;2022-11-27T00:06:13;6.90;99.90
62007;DHT22;47963;53.008;6.754;2022-11-27T00:08:40;6.80;99.90
62007;DHT22;47963;53.008;6.754;2022-11-27T00:11:19;6.80;99.90
62007;DHT22;47963;53.008;6.754;2022-11-27T00:13:45;6.80;99.90
62007;DHT22;47963;53.008;6.754;2022-11-27T00:16:12;6.80;99.90
62007;DHT22;47963;53.008;6.754;2022-11-27T00:18:39;6.80;99.90
62007;DHT22;47963;53.008;6.754;2022-11-27T00:21:11;6.80;99.90
62007;DHT22;47963;53.008;6.754;2022-11-27T00:23:38;6.80;99.90
62007;DHT22;47963;53.008;6.754;2022-11-27T00:26:06;6.80;99.90
62007;DHT22;47963;53.008;6.754;2022-11-27T00:28:32;6.70;99.90
62007;DHT22;47963;53.008;6.754;2022-11-27T00:31:00;6.70;99.90
62007;DHT22;47963;53.008;6.754;2022-11-27T00:33:26;6.70;99.90
62007;DHT22;47963;53.008;6.754;2022-11-27T00:35:52;6.70;99.90
62007;DHT22;47963;53.008;6.754;2022-11-27T00:38:17;6.70;99.90
62007;DHT22;47963;53.008;6.754;2022-11-27T00:40:45;6.70;99.90
62007;DHT22;47963;53.008;6.754;2022-11-27T00:43:11;6.70;99.90
62007;DHT22;47963;53.008;6.754;2022-11-27T00:45:37;6.60;99.90
62007;DHT22;47963;53.008;6.754;2022-11-27T00:48:03;6.60;99.90
62007;DHT22;47963;53.008;6.754;2022-11-27T00:50:28;6.60;99.90
62007;DHT22;47963;53.008;6.754;2022-11-27T00:52:57;6.60;99.90
62007;DHT22;47963;53.008;6.754;2022-11-27T00:55:23;6.60;99.90
62007;DHT22;47963;53.008;6.754;2022-11-27T00:57:49;6.60;99.90
62007;DHT22;47963;53.008;6.754;2022-11-27T01:00:15;6.60;99.90
62007;DHT22;47963;53.008;6.754;2022-11-27T01:02:40;6.60;99.90
62007;DHT22;47963;53.008;6.754;2022-11-27T01:05:06;6.60;99.90
62007;DHT22;47963;53.008;6.754;2022-11-27T01:07:32;6.60;99.90
62007;DHT22;47963;53.008;6.754;2022-11-27T01:09:58;6.60;99.90
62007;DHT22;47963;53.008;6.754;2022-11-27T01:12:23;6.50;99.90
62007;DHT22;47963;53.008;6.754;2022-11-27T01:14:49;6.60;99.90
62007;DHT22;47963;53.008;6.754;2022-11-27T01:17:15;6.60;99.90
62007;DHT22;47963;53.008;6.754;2022-11-27T01:19:40;6.50;99.90
62007;DHT22;47963;53.008;6.754;2022-11-27T01:22:06;6.50;99.90
62007;DHT22;47963;53.008;6.754;2022-11-27T01:24:31;6.50;99.90
62007;DHT22;47963;53.008;6.754;2022-11-27T01:26:57;6.50;99.90
62007;DHT22;47963;53.008;6.754;2022-11-27T01:29:23;6.50;99.90
62007;DHT22;47963;53.008;6.754;2022-11-27T01:31:48;6.50;99.90
62007;DHT22;47963;53.008;6.754;2022-11-27T01:34:17;6.40;99.90
62007;DHT22;47963;53.008;6.754;2022-11-27T01:36:43;6.40;99.90
62007;DHT22;47963;53.008;6.754;2022-11-27T01:39:17;6.40;99.90
62007;DHT22;47963;53.008;6.754;2022-11-27T01:41:43;6.30;99.90
62007;DHT22;47963;53.008;6.754;2022-11-27T01:49:36;6.30;99.90
62007;DHT22;47963;53.008;6.754;2022-11-27T01:55:14;6.20;99.90
62007;DHT22;47963;53.008;6.754;2022-11-27T01:57:49;6.20;99.90
62007;DHT22;47963;53.008;6.754;2022-11-27T02:00:17;6.20;99.90
62007;DHT22;47963;53.008;6.754;2022-11-27T02:02:44;6.20;99.90
62007;DHT22;47963;53.008;6.754;2022-11-27T02:05:16;6.10;99.90
62007;DHT22;47963;53.008;6.754;2022-11-27T02:07:42;6.10;99.90
62007;DHT22;47963;53.008;6.754;2022-11-27T02:10:08;6.10;99.90
62007;DHT22;47963;53.008;6.754;2022-11-27T02:12:58;6.10;99.90
62007;DHT22;47963;53.008;6.754;2022-11-27T02:18:42;6.10;99.90
62007;DHT22;47963;53.008;6.754;2022-11-27T02:21:33;6.10;99.90
62007;DHT22;47963;53.008;6.754;2022-11-27T02:29:32;6.00;99.90
62007;DHT22;47963;53.008;6.754;2022-11-27T02:32:09;6.00;99.90
62007;DHT22;47963;53.008;6.754;2022-11-27T02:34:49;6.00;99.90
62007;DHT22;47963;53.008;6.754;2022-11-27T02:37:26;6.00;99.90
62007;DHT22;47963;53.008;6.754;2022-11-27T02:42:48;6.00;99.90
62007;DHT22;47963;53.008;6.754;2022-11-27T02:45:30;6.00;99.90
62007;DHT22;47963;53.008;6.754;2022-11-27T02:47:59;6.00;99.90
62007;DHT22;47963;53.008;6.754;2022-11-27T02:50:25;6.00;99.90
62007;DHT22;47963;53.008;6.754;2022-11-27T02:52:56;6.00;99.90
62007;DHT22;47963;53.008;6.754;2022-11-27T02:55:26;6.00;99.90
62007;DHT22;47963;53.008;6.754;2022-11-27T02:57:55;6.00;99.90
62007;DHT22;47963;53.008;6.754;2022-11-27T03:00:21;6.00;99.90
62007;DHT22;47963;53.008;6.754;2022-11-27T03:02:59;6.00;99.90
62007;DHT22;47963;53.008;6.754;2022-11-27T03:05:30;6.00;99.90
62007;DHT22;47963;53.008;6.754;2022-11-27T03:08:24;6.00;99.90
62007;DHT22;47963;53.008;6.754;2022-11-27T03:11:07;6.00;99.90
62007;DHT22;47963;53.008;6.754;2022-11-27T03:13:39;6.00;99.90
62007;DHT22;47963;53.008;6.754;2022-11-27T03:21:21;6.00;99.90
62007;DHT22;47963;53.008;6.754;2022-11-27T03:23:49;6.00;99.90
62007;DHT22;47963;53.008;6.754;2022-11-27T03:26:15;6.00;99.90
62007;DHT22;47963;53.008;6.754;2022-11-27T03:28:42;6.00;99.90
62007;DHT22;47963;53.008;6.754;2022-11-27T03:31:08;6.10;99.90
62007;DHT22;47963;53.008;6.754;2022-11-27T03:33:34;6.00;99.90
62007;DHT22;47963;53.008;6.754;2022-11-27T03:35:59;6.00;99.90
62007;DHT22;47963;53.008;6.754;2022-11-27T03:38:25;6.00;99.90
62007;DHT22;47963;53.008;6.754;2022-11-27T03:41:08;6.00;99.90
62007;DHT22;47963;53.008;6.754;2022-11-27T03:43:41;6.00;99.90
62007;DHT22;47963;53.008;6.754;2022-11-27T03:46:14;6.00;99.90
62007;DHT22;47963;53.008;6.754;2022-11-27T03:52:11;6.00;99.90
62007;DHT22;47963;53.008;6.754;2022-11-27T03:57:36;6.00;99.90
62007;DHT22;47963;53.008;6.754;2022-11-27T04:00:05;5.90;99.90
62007;DHT22;47963;53.008;6.754;2022-11-27T04:02:45;6.00;99.90
62007;DHT22;47963;53.008;6.754;2022-11-27T04:05:13;6.00;99.90
62007;DHT22;47963;53.008;6.754;2022-11-27T04:07:39;5.90;99.90
62007;DHT22;47963;53.008;6.754;2022-11-27T04:10:05;6.00;99.90
62007;DHT22;47963;53.008;6.754;2022-11-27T04:12:31;5.90;99.90
62007;DHT22;47963;53.008;6.754;2022-11-27T04:14:57;5.90;99.90
62007;DHT22;47963;53.008;6.754;2022-11-27T04:17:23;5.90;99.90
62007;DHT22;47963;53.008;6.754;2022-11-27T04:19:48;5.90;99.90
62007;DHT22;47963;53.008;6.754;2022-11-27T04:22:14;5.90;99.90
62007;DHT22;47963;53.008;6.754;2022-11-27T04:24:39;5.90;99.90
62007;DHT22;47963;53.008;6.754;2022-11-27T04:27:05;5.90;99.90
62007;DHT22;47963;53.008;6.754;2022-11-27T04:29:31;5.90;99.90
62007;DHT22;47963;53.008;6.754;2022-11-27T04:31:56;5.90;99.90
62007;DHT22;47963;53.008;6.754;2022-11-27T04:34:22;5.90;99.90
62007;DHT22;47963;53.008;6.754;2022-11-27T04:36:48;5.90;99.90
62007;DHT22;47963;53.008;6.754;2022-11-27T04:39:14;5.90;99.90
62007;DHT22;47963;53.008;6.754;2022-11-27T04:41:39;5.90;99.90
62007;DHT22;47963;53.008;6.754;2022-11-27T04:44:05;5.90;99.90
62007;DHT22;47963;53.008;6.754;2022-11-27T04:46:31;5.90;99.90
62007;DHT22;47963;53.008;6.754;2022-11-27T04:48:56;5.90;99.90
62007;DHT22;47963;53.008;6.754;2022-11-27T04:51:22;5.90;99.90
62007;DHT22;47963;53.008;6.754;2022-11-27T04:53:48;5.90;99.90
62007;DHT22;47963;53.008;6.754;2022-11-27T04:56:14;5.90;99.90
62007;DHT22;47963;53.008;6.754;2022-11-27T04:58:39;5.90;99.90
62007;DHT22;47963;53.008;6.754;2022-11-27T05:01:07;5.90;99.90
62007;DHT22;47963;53.008;6.754;2022-11-27T05:03:33;5.80;99.90
62007;DHT22;47963;53.008;6.754;2022-11-27T05:05:59;5.80;99.90
62007;DHT22;47963;53.008;6.754;2022-11-27T05:08:25;5.80;99.90
62007;DHT22;47963;53.008;6.754;2022-11-27T05:11:07;5.80;99.90
62007;DHT22;47963;53.008;6.754;2022-11-27T05:13:34;5.80;99.90
62007;DHT22;47963;53.008;6.754;2022-11-27T05:16:00;5.80;99.90
62007;DHT22;47963;53.008;6.754;2022-11-27T05:18:26;5.80;99.90
62007;DHT22;47963;53.008;6.754;2022-11-27T05:20:59;5.80;99.90
62007;DHT22;47963;53.008;6.754;2022-11-27T05:23:25;5.80;99.90
62007;DHT22;47963;53.008;6.754;2022-11-27T05:25:51;5.80;99.90
62007;DHT22;47963;53.008;6.754;2022-11-27T05:28:17;5.80;99.90
62007;DHT22;47963;53.008;6.754;2022-11-27T05:30:43;5.80;99.90
62007;DHT22;47963;53.008;6.754;2022-11-27T05:33:09;5.80;99.90
62007;DHT22;47963;53.008;6.754;2022-11-27T05:35:34;5.80;99.90
62007;DHT22;47963;53.008;6.754;2022-11-27T05:38:00;5.80;99.90
62007;DHT22;47963;53.008;6.754;2022-11-27T05:40:25;5.80;99.90
62007;DHT22;47963;53.008;6.754;2022-11-27T05:42:51;5.70;99.90
62007;DHT22;47963;53.008;6.754;2022-11-27T05:45:17;5.80;99.90
62007;DHT22;47963;53.008;6.754;2022-11-27T05:47:42;5.70;99.90
62007;DHT22;47963;53.008;6.754;2022-11-27T05:50:08;5.70;99.90
62007;DHT22;47963;53.008;6.754;2022-11-27T05:52:34;5.70;99.90
62007;DHT22;47963;53.008;6.754;2022-11-27T05:54:59;5.70;99.90
62007;DHT22;47963;53.008;6.754;2022-11-27T05:57:25;5.70;99.90
62007;DHT22;47963;53.008;6.754;2022-11-27T05:59:51;5.70;99.90
62007;DHT22;47963;53.008;6.754;2022-11-27T06:02:16;5.70;99.90
62007;DHT22;47963;53.008;6.754;2022-11-27T06:04:42;5.70;99.90
62007;DHT22;47963;53.008;6.754;2022-11-27T06:07:07;5.70;99.90
62007;DHT22;47963;53.008;6.754;2022-11-27T06:09:33;5.70;99.90
62007;DHT22;47963;53.008;6.754;2022-11-27T06:12:01;5.70;99.90
62007;DHT22;47963;53.008;6.754;2022-11-27T06:14:27;5.70;99.90
62007;DHT22;47963;53.008;6.754;2022-11-27T06:16:52;5.70;99.90
62007;DHT22;47963;53.008;6.754;2022-11-27T06:19:18;5.70;99.90
62007;DHT22;47963;53.008;6.754;2022-11-27T06:21:44;5.60;99.90
62007;DHT22;47963;53.008;6.754;2022-11-27T06:24:10;5.70;99.90
62007;DHT22;47963;53.008;6.754;2022-11-27T06:26:36;5.70;99.90
62007;DHT22;47963;53.008;6.754;2022-11-27T06:29:02;5.70;99.90
62007;DHT22;47963;53.008;6.754;2022-11-27T06:31:30;5.60;99.90
62007;DHT22;47963;53.008;6.754;2022-11-27T06:33:56;5.60;99.90
62007;DHT22;47963;53.008;6.754;2022-11-27T06:36:31;5.60;99.90
62007;DHT22;47963;53.008;6.754;2022-11-27T06:38:58;5.60;99.90
62007;DHT22;47963;53.008;6.754;2022-11-27T06:41:24;5.60;99.90
62007;DHT22;47963;53.008;6.754;2022-11-27T06:43:51;5.60;99.90
62007;DHT22;47963;53.008;6.754;2022-11-27T06:46:19;5.60;99.90
62007;DHT22;47963;53.008;6.754;2022-11-27T06:48:46;5.60;99.90
62007;DHT22;47963;53.008;6.754;2022-11-27T06:51:15;5.60;99.90
62007;DHT22;47963;53.008;6.754;2022-11-27T06:53:41;5.60;99.90
62007;DHT22;47963;53.008;6.754;2022-11-27T06:56:12;5.60;99.90
62007;DHT22;47963;53.008;6.754;2022-11-27T06:58:38;5.60;99.90
62007;DHT22;47963;53.008;6.754;2022-11-27T07:01:09;5.60;99.90
62007;DHT22;47963;53.008;6.754;2022-11-27T07:03:36;5.60;99.90
62007;DHT22;47963;53.008;6.754;2022-11-27T07:06:03;5.60;99.90
62007;DHT22;47963;53.008;6.754;2022-11-27T07:08:29;5.60;99.90
62007;DHT22;47963;53.008;6.754;2022-11-27T07:11:06;5.70;99.90
62007;DHT22;47963;53.008;6.754;2022-11-27T07:13:32;5.70;99.90
62007;DHT22;47963;53.008;6.754;2022-11-27T07:16:02;5.70;99.90
62007;DHT22;47963;53.008;6.754;2022-11-27T07:18:28;5.70;99.90
62007;DHT22;47963;53.008;6.754;2022-11-27T07:20:54;5.70;99.90
62007;DHT22;47963;53.008;6.754;2022-11-27T07:23:20;5.70;99.90
62007;DHT22;47963;53.008;6.754;2022-11-27T07:25:46;5.70;99.90
62007;DHT22;47963;53.008;6.754;2022-11-27T07:28:12;5.70;99.90
62007;DHT22;47963;53.008;6.754;2022-11-27T07:30:37;5.70;99.90
62007;DHT22;47963;53.008;6.754;2022-11-27T07:33:03;5.70;99.90
62007;DHT22;47963;53.008;6.754;2022-11-27T07:35:28;5.70;99.90
62007;DHT22;47963;53.008;6.754;2022-11-27T07:37:54;5.70;99.90
62007;DHT22;47963;53.008;6.754;2022-11-27T07:40:20;5.70;99.90
62007;DHT22;47963;53.008;6.754;2022-11-27T07:42:45;5.70;99.90
62007;DHT22;47963;53.008;6.754;2022-11-27T07:45:11;5.70;99.90
62007;DHT22;47963;53.008;6.754;2022-11-27T07:47:38;5.80;99.90
62007;DHT22;47963;53.008;6.754;2022-11-27T07:50:04;5.80;99.90
62007;DHT22;47963;53.008;6.754;2022-11-27T07:52:33;5.80;99.90
62007;DHT22;47963;53.008;6.754;2022-11-27T07:54:59;5.70;99.90
62007;DHT22;47963;53.008;6.754;2022-11-27T07:57:26;5.80;99.90
62007;DHT22;47963;53.008;6.754;2022-11-27T07:59:52;5.80;99.90
62007;DHT22;47963;53.008;6.754;2022-11-27T08:02:18;5.80;99.90
62007;DHT22;47963;53.008;6.754;2022-11-27T08:04:43;5.80;99.90
62007;DHT22;47963;53.008;6.754;2022-11-27T08:07:09;5.80;99.90
62007;DHT22;47963;53.008;6.754;2022-11-27T08:09:35;5.80;99.90
62007;DHT22;47963;53.008;6.754;2022-11-27T08:12:03;5.90;99.90
62007;DHT22;47963;53.008;6.754;2022-11-27T08:14:28;5.80;99.90
62007;DHT22;47963;53.008;6.754;2022-11-27T08:16:54;5.90;99.90
62007;DHT22;47963;53.008;6.754;2022-11-27T08:19:20;5.90;99.90
62007;DHT22;47963;53.008;6.754;2022-11-27T08:21:46;5.90;99.90
62007;DHT22;47963;53.008;6.754;2022-11-27T08:24:12;5.90;99.90
62007;DHT22;47963;53.008;6.754;2022-11-27T08:26:38;5.90;99.90
62007;DHT22;47963;53.008;6.754;2022-11-27T08:29:04;6.00;99.90
62007;DHT22;47963;53.008;6.754;2022-11-27T08:31:31;6.00;99.90
62007;DHT22;47963;53.008;6.754;2022-11-27T08:33:57;6.00;99.90
62007;DHT22;47963;53.008;6.754;2022-11-27T08:36:27;6.00;99.90
62007;DHT22;47963;53.008;6.754;2022-11-27T08:38:53;6.00;99.90
62007;DHT22;47963;53.008;6.754;2022-11-27T08:41:19;6.00;99.90
62007;DHT22;47963;53.008;6.754;2022-11-27T08:43:45;6.00;99.90
62007;DHT22;47963;53.008;6.754;2022-11-27T08:46:11;6.00;99.90
62007;DHT22;47963;53.008;6.754;2022-11-27T08:48:37;6.00;99.90
62007;DHT22;47963;53.008;6.754;2022-11-27T08:51:08;6.00;99.90
62007;DHT22;47963;53.008;6.754;2022-11-27T08:53:34;6.00;99.90
62007;DHT22;47963;53.008;6.754;2022-11-27T08:56:12;6.10;99.90
62007;DHT22;47963;53.008;6.754;2022-11-27T08:58:38;6.10;99.90
62007;DHT22;47963;53.008;6.754;2022-11-27T09:01:25;6.10;99.90
62007;DHT22;47963;53.008;6.754;2022-11-27T09:03:52;6.10;99.90
62007;DHT22;47963;53.008;6.754;2022-11-27T09:06:20;6.10;99.90
62007;DHT22;47963;53.008;6.754;2022-11-27T09:08:46;6.10;99.90
62007;DHT22;47963;53.008;6.754;2022-11-27T09:11:13;6.10;99.90
62007;DHT22;47963;53.008;6.754;2022-11-27T09:13:40;6.10;99.90
62007;DHT22;47963;53.008;6.754;2022-11-27T09:16:17;6.10;99.90
62007;DHT22;47963;53.008;6.754;2022-11-27T09:18:47;6.10;99.90
62007;DHT22;47963;53.008;6.754;2022-11-27T09:21:15;6.10;99.90
62007;DHT22;47963;53.008;6.754;2022-11-27T09:23:41;6.10;99.90
62007;DHT22;47963;53.008;6.754;2022-11-27T09:26:10;6.10;99.90
62007;DHT22;47963;53.008;6.754;2022-11-27T09:28:37;6.10;99.90
62007;DHT22;47963;53.008;6.754;2022-11-27T09:31:05;6.10;99.90
62007;DHT22;47963;53.008;6.754;2022-11-27T09:33:32;6.10;99.90
62007;DHT22;47963;53.008;6.754;2022-11-27T09:36:03;6.10;99.90
62007;DHT22;47963;53.008;6.754;2022-11-27T09:38:29;6.10;99.90
62007;DHT22;47963;53.008;6.754;2022-11-27T09:41:04;6.10;99.90
62007;DHT22;47963;53.008;6.754;2022-11-27T09:43:34;6.10;99.90
62007;DHT22;47963;53.008;6.754;2022-11-27T09:46:08;6.10;99.90
62007;DHT22;47963;53.008;6.754;2022-11-27T09:48:39;6.10;99.90
62007;DHT22;47963;53.008;6.754;2022-11-27T09:51:26;6.10;99.90
62007;DHT22;47963;53.008;6.754;2022-11-27T09:54:05;6.10;99.90
62007;DHT22;47963;53.008;6.754;2022-11-27T09:56:34;6.10;99.90
62007;DHT22;47963;53.008;6.754;2022-11-27T09:59:01;6.10;99.90
62007;DHT22;47963;53.008;6.754;2022-11-27T10:01:31;6.10;99.90
62007;DHT22;47963;53.008;6.754;2022-11-27T10:03:59;6.10;99.90
62007;DHT22;47963;53.008;6.754;2022-11-27T10:12:15;6.10;99.90
62007;DHT22;47963;53.008;6.754;2022-11-27T10:17:32;6.10;99.90
62007;DHT22;47963;53.008;6.754;2022-11-27T10:25:55;6.10;99.90
62007;DHT22;47963;53.008;6.754;2022-11-27T10:31:17;6.10;99.90
62007;DHT22;47963;53.008;6.754;2022-11-27T10:33:50;6.10;99.90
62007;DHT22;47963;53.008;6.754;2022-11-27T10:38:58;6.10;99.90
62007;DHT22;47963;53.008;6.754;2022-11-27T10:41:41;6.10;99.90
62007;DHT22;47963;53.008;6.754;2022-11-27T10:44:32;6.10;99.90
62007;DHT22;47963;53.008;6.754;2022-11-27T10:47:05;6.10;99.90
62007;DHT22;47963;53.008;6.754;2022-11-27T10:49:34;6.10;99.90
62007;DHT22;47963;53.008;6.754;2022-11-27T10:52:01;6.10;99.90
62007;DHT22;47963;53.008;6.754;2022-11-27T10:54:31;6.10;99.90
62007;DHT22;47963;53.008;6.754;2022-11-27T10:57:27;6.10;99.90
62007;DHT22;47963;53.008;6.754;2022-11-27T11:02:37;6.10;99.90
62007;DHT22;47963;53.008;6.754;2022-11-27T11:05:20;6.10;99.90
62007;DHT22;47963;53.008;6.754;2022-11-27T11:08:04;6.20;99.90
62007;DHT22;47963;53.008;6.754;2022-11-27T11:10:42;6.20;99.90
62007;DHT22;47963;53.008;6.754;2022-11-27T11:13:16;6.20;99.90
62007;DHT22;47963;53.008;6.754;2022-11-27T11:18:28;6.20;99.90
62007;DHT22;47963;53.008;6.754;2022-11-27T11:21:03;6.20;99.90
62007;DHT22;47963;53.008;6.754;2022-11-27T11:23:34;6.20;99.90
62007;DHT22;47963;53.008;6.754;2022-11-27T11:26:03;6.20;99.90
62007;DHT22;47963;53.008;6.754;2022-11-27T11:28:30;6.20;99.90
62007;DHT22;47963;53.008;6.754;2022-11-27T11:31:02;6.20;99.90
62007;DHT22;47963;53.008;6.754;2022-11-27T11:33:29;6.20;99.90
62007;DHT22;47963;53.008;6.754;2022-11-27T11:36:00;6.20;99.90
62007;DHT22;47963;53.008;6.754;2022-11-27T11:38:31;6.20;99.90
62007;DHT22;47963;53.008;6.754;2022-11-27T11:41:03;6.20;99.90
62007;DHT22;47963;53.008;6.754;2022-11-27T11:43:33;6.20;99.90
62007;DHT22;47963;53.008;6.754;2022-11-27T11:46:19;6.30;99.90
62007;DHT22;47963;53.008;6.754;2022-11-27T11:49:17;6.30;99.90
62007;DHT22;47963;53.008;6.754;2022-11-27T11:54:47;6.20;99.90
62007;DHT22;47963;53.008;6.754;2022-11-27T12:00:10;6.30;99.90
62007;DHT22;47963;53.008;6.754;2022-11-27T12:11:34;6.30;99.90
62007;DHT22;47963;53.008;6.754;2022-11-27T12:14:22;6.30;99.90
62007;DHT22;47963;53.008;6.754;2022-11-27T12:22:44;6.30;99.90
62007;DHT22;47963;53.008;6.754;2022-11-27T12:25:34;6.40;99.90
62007;DHT22;47963;53.008;6.754;2022-11-27T12:31:11;6.40;99.90
62007;DHT22;47963;53.008;6.754;2022-11-27T12:34:01;6.30;99.90
62007;DHT22;47963;53.008;6.754;2022-11-27T12:42:24;6.40;99.90
62007;DHT22;47963;53.008;6.754;2022-11-27T12:47:44;6.40;99.90
62007;DHT22;47963;53.008;6.754;2022-11-27T12:53:23;6.50;99.90
62007;DHT22;47963;53.008;6.754;2022-11-27T12:56:05;6.50;99.90
62007;DHT22;47963;53.008;6.754;2022-11-27T12:58:40;6.40;99.90
62007;DHT22;47963;53.008;6.754;2022-11-27T13:01:18;6.50;99.90
62007;DHT22;47963;53.008;6.754;2022-11-27T13:04:17;6.50;99.90
62007;DHT22;47963;53.008;6.754;2022-11-27T13:06:52;6.50;99.90
62007;DHT22;47963;53.008;6.754;2022-11-27T13:09:27;6.50;99.90
62007;DHT22;47963;53.008;6.754;2022-11-27T13:11:56;6.50;99.90
62007;DHT22;47963;53.008;6.754;2022-11-27T13:14:24;6.50;99.90
62007;DHT22;47963;53.008;6.754;2022-11-27T13:17:01;6.50;99.90
62007;DHT22;47963;53.008;6.754;2022-11-27T13:19:33;6.50;99.90
62007;DHT22;47963;53.008;6.754;2022-11-27T13:22:07;6.50;99.90
62007;DHT22;47963;53.008;6.754;2022-11-27T13:24:35;6.50;99.90
62007;DHT22;47963;53.008;6.754;2022-11-27T13:27:14;6.50;99.90
62007;DHT22;47963;53.008;6.754;2022-11-27T13:29:52;6.50;99.90
62007;DHT22;47963;53.008;6.754;2022-11-27T13:32:39;6.50;99.90
62007;DHT22;47963;53.008;6.754;2022-11-27T13:35:22;6.50;99.90
62007;DHT22;47963;53.008;6.754;2022-11-27T13:37:56;6.50;99.90
62007;DHT22;47963;53.008;6.754;2022-11-27T13:40:30;6.60;99.90
62007;DHT22;47963;53.008;6.754;2022-11-27T13:43:02;6.50;99.90
62007;DHT22;47963;53.008;6.754;2022-11-27T13:45:33;6.50;99.90
62007;DHT22;47963;53.008;6.754;2022-11-27T13:48:04;6.50;99.90
62007;DHT22;47963;53.008;6.754;2022-11-27T13:50:44;6.50;99.90
62007;DHT22;47963;53.008;6.754;2022-11-27T13:53:10;6.50;99.90
62007;DHT22;47963;53.008;6.754;2022-11-27T13:55:52;6.50;99.90
62007;DHT22;47963;53.008;6.754;2022-11-27T13:58:32;6.50;99.90
62007;DHT22;47963;53.008;6.754;2022-11-27T14:01:10;6.50;99.90
62007;DHT22;47963;53.008;6.754;2022-11-27T14:03:37;6.50;99.90
62007;DHT22;47963;53.008;6.754;2022-11-27T14:11:33;6.50;99.90
62007;DHT22;47963;53.008;6.754;2022-11-27T14:14:00;6.50;99.90
62007;DHT22;47963;53.008;6.754;2022-11-27T14:16:29;6.50;99.90
62007;DHT22;47963;53.008;6.754;2022-11-27T14:18:58;6.50;99.90
62007;DHT22;47963;53.008;6.754;2022-11-27T14:21:39;6.50;99.90
62007;DHT22;47963;53.008;6.754;2022-11-27T14:26:52;6.50;99.90
62007;DHT22;47963;53.008;6.754;2022-11-27T14:29:20;6.50;99.90
62007;DHT22;47963;53.008;6.754;2022-11-27T14:31:58;6.50;99.90
62007;DHT22;47963;53.008;6.754;2022-11-27T14:34:28;6.50;99.90
62007;DHT22;47963;53.008;6.754;2022-11-27T14:36:55;6.50;99.90
62007;DHT22;47963;53.008;6.754;2022-11-27T14:39:27;6.50;99.90
62007;DHT22;47963;53.008;6.754;2022-11-27T14:42:00;6.50;99.90
62007;DHT22;47963;53.008;6.754;2022-11-27T14:44:26;6.50;99.90
62007;DHT22;47963;53.008;6.754;2022-11-27T14:46:53;6.50;99.90
62007;DHT22;47963;53.008;6.754;2022-11-27T14:49:23;6.50;99.90
62007;DHT22;47963;53.008;6.754;2022-11-27T14:51:50;6.50;99.90
62007;DHT22;47963;53.008;6.754;2022-11-27T14:54:24;6.40;99.90
62007;DHT22;47963;53.008;6.754;2022-11-27T14:56:51;6.40;99.90
62007;DHT22;47963;53.008;6.754;2022-11-27T14:59:19;6.40;99.90
62007;DHT22;47963;53.008;6.754;2022-11-27T15:01:57;6.40;99.90
62007;DHT22;47963;53.008;6.754;2022-11-27T15:04:28;6.40;99.90
62007;DHT22;47963;53.008;6.754;2022-11-27T15:06:54;6.40;99.90
62007;DHT22;47963;53.008;6.754;2022-11-27T15:09:24;6.40;99.90
62007;DHT22;47963;53.008;6.754;2022-11-27T15:12:07;6.40;99.90
62007;DHT22;47963;53.008;6.754;2022-11-27T15:14:34;6.40;99.90
62007;DHT22;47963;53.008;6.754;2022-11-27T15:17:00;6.40;99.90
62007;DHT22;47963;53.008;6.754;2022-11-27T15:19:36;6.40;99.90
62007;DHT22;47963;53.008;6.754;2022-11-27T15:22:02;6.40;99.90
62007;DHT22;47963;53.008;6.754;2022-11-27T15:24:36;6.40;99.90
62007;DHT22;47963;53.008;6.754;2022-11-27T15:32:17;6.40;99.90
62007;DHT22;47963;53.008;6.754;2022-11-27T15:34:43;6.40;99.90
62007;DHT22;47963;53.008;6.754;2022-11-27T15:37:27;6.40;99.90
62007;DHT22;47963;53.008;6.754;2022-11-27T15:39:56;6.40;99.90
62007;DHT22;47963;53.008;6.754;2022-11-27T15:42:22;6.40;99.90
62007;DHT22;47963;53.008;6.754;2022-11-27T15:44:53;6.40;99.90
62007;DHT22;47963;53.008;6.754;2022-11-27T15:47:35;6.40;99.90
62007;DHT22;47963;53.008;6.754;2022-11-27T15:50:02;6.40;99.90
62007;DHT22;47963;53.008;6.754;2022-11-27T15:52:28;6.40;99.90
62007;DHT22;47963;53.008;6.754;2022-11-27T15:54:54;6.40;99.90
62007;DHT22;47963;53.008;6.754;2022-11-27T15:57:22;6.50;99.90
62007;DHT22;47963;53.008;6.754;2022-11-27T15:59:48;6.50;99.90
62007;DHT22;47963;53.008;6.754;2022-11-27T16:02:14;6.40;99.90
62007;DHT22;47963;53.008;6.754;2022-11-27T16:04:40;6.50;99.90
62007;DHT22;47963;53.008;6.754;2022-11-27T16:07:07;6.50;99.90
62007;DHT22;47963;53.008;6.754;2022-11-27T16:09:33;6.40;99.90
62007;DHT22;47963;53.008;6.754;2022-11-27T16:11:59;6.40;99.90
62007;DHT22;47963;53.008;6.754;2022-11-27T16:14:24;6.50;99.90
62007;DHT22;47963;53.008;6.754;2022-11-27T16:16:50;6.50;99.90
62007;DHT22;47963;53.008;6.754;2022-11-27T16:19:15;6.50;99.90
62007;DHT22;47963;53.008;6.754;2022-11-27T16:21:41;6.50;99.90
62007;DHT22;47963;53.008;6.754;2022-11-27T16:24:11;6.50;99.90
62007;DHT22;47963;53.008;6.754;2022-11-27T16:26:37;6.40;99.90
62007;DHT22;47963;53.008;6.754;2022-11-27T16:29:04;6.50;99.90
62007;DHT22;47963;53.008;6.754;2022-11-27T16:31:30;6.50;99.90
62007;DHT22;47963;53.008;6.754;2022-11-27T16:33:56;6.40;99.90
62007;DHT22;47963;53.008;6.754;2022-11-27T16:36:22;6.50;99.90
62007;DHT22;47963;53.008;6.754;2022-11-27T16:38:50;6.50;99.90
62007;DHT22;47963;53.008;6.754;2022-11-27T16:41:18;6.50;99.90
62007;DHT22;47963;53.008;6.754;2022-11-27T16:43:46;6.50;99.90
62007;DHT22;47963;53.008;6.754;2022-11-27T16:46:17;6.40;99.90
62007;DHT22;47963;53.008;6.754;2022-11-27T16:48:44;6.50;99.90
62007;DHT22;47963;53.008;6.754;2022-11-27T16:51:19;6.40;99.90
62007;DHT22;47963;53.008;6.754;2022-11-27T16:53:48;6.40;99.90
62007;DHT22;47963;53.008;6.754;2022-11-27T16:56:15;6.40;99.90
62007;DHT22;47963;53.008;6.754;2022-11-27T16:58:43;6.40;99.90
62007;DHT22;47963;53.008;6.754;2022-11-27T17:01:11;6.40;99.90
62007;DHT22;47963;53.008;6.754;2022-11-27T17:03:37;6.40;99.90
62007;DHT22;47963;53.008;6.754;2022-11-27T17:06:14;6.40;99.90
62007;DHT22;47963;53.008;6.754;2022-11-27T17:08:40;6.40;99.90
62007;DHT22;47963;53.008;6.754;2022-11-27T17:13:32;6.40;99.90
62007;DHT22;47963;53.008;6.754;2022-11-27T17:16:03;6.40;99.90
62007;DHT22;47963;53.008;6.754;2022-11-27T17:18:29;6.50;99.90
62007;DHT22;47963;53.008;6.754;2022-11-27T17:21:02;6.50;99.90
62007;DHT22;47963;53.008;6.754;2022-11-27T17:23:28;6.40;99.90
62007;DHT22;47963;53.008;6.754;2022-11-27T17:25:54;6.40;99.90
62007;DHT22;47963;53.008;6.754;2022-11-27T17:28:19;6.40;99.90
62007;DHT22;47963;53.008;6.754;2022-11-27T17:30:45;6.40;99.90
62007;DHT22;47963;53.008;6.754;2022-11-27T17:33:10;6.50;99.90
62007;DHT22;47963;53.008;6.754;2022-11-27T17:35:36;6.50;99.90
62007;DHT22;47963;53.008;6.754;2022-11-27T17:38:02;6.50;99.90
62007;DHT22;47963;53.008;6.754;2022-11-27T17:40:28;6.40;99.90
62007;DHT22;47963;53.008;6.754;2022-11-27T17:42:55;6.50;99.90
62007;DHT22;47963;53.008;6.754;2022-11-27T17:45:21;6.50;99.90
62007;DHT22;47963;53.008;6.754;2022-11-27T17:47:47;6.50;99.90